Ennis, Ireland
Current Conditions -  °F | °C
As of 6:30 AM on Friday 31 Oct 2014 (Local Time) from EINN Reporting Station
Broken Clouds Broken Clouds  
Wind Chill: 16°   Ceiling: 2700
Heat Index: 16°   Visibility: 6mi
Dew Point: 15°   Wind: 20mph
Humidity: 94%   Direction: 150°SSE
Pressure: 29.59"   Gusts: NA
Location:  52.86°N, 8.99°W
Report Text: EINN 310630Z 15017KT 9999 FEW014 BKN027 16/15 Q1002 NOSIG
Loading
Personal Weather Stations






























Interactive Weather Map
Tropical Storm Tracking
New forecast layout! Learn more

10-Day Weather Forecast

Advertisements
Track Severe Weather on mobile